Stanley, China
Current Conditions -  °F | °C
As of 10:30 PM on Sunday 23 Nov 2014 (Local Time) from VHHH Reporting Station
Few Clouds Few Clouds  
Wind Chill: 75°   Ceiling: Unl
Heat Index: 75°   Visibility: 6mi
Dew Point: 66°   Wind: 8mph
Humidity: 73%   Direction: 110°ESE
Pressure: 30.03"   Gusts: NA
Location:  22.21°N, 114.22°E
Report Text: VHHH 231430Z 11007KT 080V150 9999 FEW025 24/19 Q1017 NOSIG
Loading
Personal Weather Stations






























Interactive Weather Map New forecast layout! Learn more

10-Day Weather Forecast

Advertisements
Track Severe Weather on mobile